sensor_id;sensor_type;location;lat;lon;timestamp;P1;durP1;ratioP1;P2;durP2;ratioP2
51558;SDS011;61650;48.882;2.092;2022-11-27T00:00:42;6.70;;;5.07;;
51558;SDS011;61650;48.882;2.092;2022-11-27T00:03:08;9.93;;;5.60;;
51558;SDS011;61650;48.882;2.092;2022-11-27T00:05:34;10.67;;;5.00;;
51558;SDS011;61650;48.882;2.092;2022-11-27T00:08:00;7.80;;;4.77;;
51558;SDS011;61650;48.882;2.092;2022-11-27T00:10:25;6.90;;;5.53;;
51558;SDS011;61650;48.882;2.092;2022-11-27T00:12:51;5.87;;;4.53;;
51558;SDS011;61650;48.882;2.092;2022-11-27T00:15:17;11.45;;;4.78;;
51558;SDS011;61650;48.882;2.092;2022-11-27T00:17:43;8.83;;;5.30;;
51558;SDS011;61650;48.882;2.092;2022-11-27T00:20:09;7.20;;;5.20;;
51558;SDS011;61650;48.882;2.092;2022-11-27T00:22:35;9.18;;;5.10;;
51558;SDS011;61650;48.882;2.092;2022-11-27T00:25:01;7.20;;;4.90;;
51558;SDS011;61650;48.882;2.092;2022-11-27T00:27:26;7.80;;;4.40;;
51558;SDS011;61650;48.882;2.092;2022-11-27T00:29:52;6.20;;;4.77;;
51558;SDS011;61650;48.882;2.092;2022-11-27T00:32:17;7.57;;;4.77;;
51558;SDS011;61650;48.882;2.092;2022-11-27T00:34:43;6.13;;;4.87;;
51558;SDS011;61650;48.882;2.092;2022-11-27T00:37:09;6.87;;;5.47;;
51558;SDS011;61650;48.882;2.092;2022-11-27T00:39:36;8.13;;;5.25;;
51558;SDS011;61650;48.882;2.092;2022-11-27T00:42:01;7.97;;;5.07;;
51558;SDS011;61650;48.882;2.092;2022-11-27T00:44:27;9.23;;;4.97;;
51558;SDS011;61650;48.882;2.092;2022-11-27T00:46:52;9.47;;;5.77;;
51558;SDS011;61650;48.882;2.092;2022-11-27T00:49:18;7.57;;;4.90;;
51558;SDS011;61650;48.882;2.092;2022-11-27T00:51:43;8.00;;;5.10;;
51558;SDS011;61650;48.882;2.092;2022-11-27T00:54:09;7.10;;;5.50;;
51558;SDS011;61650;48.882;2.092;2022-11-27T00:56:36;9.67;;;5.97;;
51558;SDS011;61650;48.882;2.092;2022-11-27T00:59:04;9.25;;;5.15;;
51558;SDS011;61650;48.882;2.092;2022-11-27T01:01:34;7.38;;;5.20;;
51558;SDS011;61650;48.882;2.092;2022-11-27T01:04:03;7.85;;;4.88;;
51558;SDS011;61650;48.882;2.092;2022-11-27T01:06:30;8.05;;;4.95;;
51558;SDS011;61650;48.882;2.092;2022-11-27T01:08:56;5.80;;;4.93;;
51558;SDS011;61650;48.882;2.092;2022-11-27T01:11:23;7.50;;;4.78;;
51558;SDS011;61650;48.882;2.092;2022-11-27T01:13:51;7.03;;;5.43;;
51558;SDS011;61650;48.882;2.092;2022-11-27T01:16:19;6.70;;;4.70;;
51558;SDS011;61650;48.882;2.092;2022-11-27T01:18:47;6.70;;;4.13;;
51558;SDS011;61650;48.882;2.092;2022-11-27T01:21:15;8.30;;;4.55;;
51558;SDS011;61650;48.882;2.092;2022-11-27T01:23:42;8.48;;;4.63;;
51558;SDS011;61650;48.882;2.092;2022-11-27T01:26:08;7.77;;;4.20;;
51558;SDS011;61650;48.882;2.092;2022-11-27T01:28:36;7.50;;;4.78;;
51558;SDS011;61650;48.882;2.092;2022-11-27T01:31:13;5.40;;;4.40;;
51558;SDS011;61650;48.882;2.092;2022-11-27T01:33:40;9.18;;;5.07;;
51558;SDS011;61650;48.882;2.092;2022-11-27T01:36:07;6.65;;;4.30;;
51558;SDS011;61650;48.882;2.092;2022-11-27T01:38:34;7.90;;;4.75;;
51558;SDS011;61650;48.882;2.092;2022-11-27T01:41:02;9.13;;;5.40;;
51558;SDS011;61650;48.882;2.092;2022-11-27T01:46:21;6.88;;;4.13;;
51558;SDS011;61650;48.882;2.092;2022-11-27T01:49:00;7.88;;;4.50;;
51558;SDS011;61650;48.882;2.092;2022-11-27T01:51:27;8.20;;;4.65;;
51558;SDS011;61650;48.882;2.092;2022-11-27T01:53:54;8.57;;;4.63;;
51558;SDS011;61650;48.882;2.092;2022-11-27T01:56:20;6.65;;;4.20;;
51558;SDS011;61650;48.882;2.092;2022-11-27T01:58:47;5.32;;;4.07;;
51558;SDS011;61650;48.882;2.092;2022-11-27T02:01:13;9.60;;;5.00;;
51558;SDS011;61650;48.882;2.092;2022-11-27T02:03:39;7.90;;;4.03;;
51558;SDS011;61650;48.882;2.092;2022-11-27T02:06:05;7.33;;;4.30;;
51558;SDS011;61650;48.882;2.092;2022-11-27T02:08:31;12.90;;;5.57;;
51558;SDS011;61650;48.882;2.092;2022-11-27T02:13:52;6.85;;;4.75;;
51558;SDS011;61650;48.882;2.092;2022-11-27T02:16:30;7.20;;;5.03;;
51558;SDS011;61650;48.882;2.092;2022-11-27T02:22:08;8.43;;;4.93;;
51558;SDS011;61650;48.882;2.092;2022-11-27T02:30:29;9.15;;;4.10;;
51558;SDS011;61650;48.882;2.092;2022-11-27T02:33:01;9.10;;;4.10;;
51558;SDS011;61650;48.882;2.092;2022-11-27T02:35:37;5.97;;;3.72;;
51558;SDS011;61650;48.882;2.092;2022-11-27T02:38:13;5.50;;;4.03;;
51558;SDS011;61650;48.882;2.092;2022-11-27T02:40:49;5.63;;;4.35;;
51558;SDS011;61650;48.882;2.092;2022-11-27T02:43:27;7.07;;;3.85;;
51558;SDS011;61650;48.882;2.092;2022-11-27T02:45:56;6.95;;;3.83;;
51558;SDS011;61650;48.882;2.092;2022-11-27T02:48:24;5.88;;;4.45;;
51558;SDS011;61650;48.882;2.092;2022-11-27T02:50:59;9.60;;;4.63;;
51558;SDS011;61650;48.882;2.092;2022-11-27T02:53:32;6.47;;;4.72;;
51558;SDS011;61650;48.882;2.092;2022-11-27T02:56:02;6.93;;;5.03;;
51558;SDS011;61650;48.882;2.092;2022-11-27T02:58:31;7.47;;;4.88;;
51558;SDS011;61650;48.882;2.092;2022-11-27T03:00:58;6.18;;;3.78;;
51558;SDS011;61650;48.882;2.092;2022-11-27T03:03:25;6.47;;;4.30;;
51558;SDS011;61650;48.882;2.092;2022-11-27T03:05:56;9.55;;;4.82;;
51558;SDS011;61650;48.882;2.092;2022-11-27T03:08:44;5.80;;;4.35;;
51558;SDS011;61650;48.882;2.092;2022-11-27T03:11:39;7.38;;;3.90;;
51558;SDS011;61650;48.882;2.092;2022-11-27T03:14:06;6.10;;;4.80;;
51558;SDS011;61650;48.882;2.092;2022-11-27T03:16:39;5.82;;;4.05;;
51558;SDS011;61650;48.882;2.092;2022-11-27T03:19:25;6.68;;;4.25;;
51558;SDS011;61650;48.882;2.092;2022-11-27T03:21:58;5.30;;;4.72;;
51558;SDS011;61650;48.882;2.092;2022-11-27T03:24:26;12.95;;;5.13;;
51558;SDS011;61650;48.882;2.092;2022-11-27T03:26:53;6.50;;;5.60;;
51558;SDS011;61650;48.882;2.092;2022-11-27T03:29:28;8.07;;;4.20;;
51558;SDS011;61650;48.882;2.092;2022-11-27T03:31:59;9.55;;;4.70;;
51558;SDS011;61650;48.882;2.092;2022-11-27T03:34:25;8.18;;;5.10;;
51558;SDS011;61650;48.882;2.092;2022-11-27T03:36:52;8.13;;;4.93;;
51558;SDS011;61650;48.882;2.092;2022-11-27T03:39:18;8.13;;;4.80;;
51558;SDS011;61650;48.882;2.092;2022-11-27T03:42:00;8.23;;;4.85;;
51558;SDS011;61650;48.882;2.092;2022-11-27T03:53:51;9.38;;;5.00;;
51558;SDS011;61650;48.882;2.092;2022-11-27T03:56:48;9.93;;;5.53;;
51558;SDS011;61650;48.882;2.092;2022-11-27T03:59:22;8.35;;;4.78;;
51558;SDS011;61650;48.882;2.092;2022-11-27T04:01:52;7.15;;;4.90;;
51558;SDS011;61650;48.882;2.092;2022-11-27T04:04:17;5.63;;;4.10;;
51558;SDS011;61650;48.882;2.092;2022-11-27T04:06:43;7.90;;;4.83;;
51558;SDS011;61650;48.882;2.092;2022-11-27T04:09:09;7.63;;;5.00;;
51558;SDS011;61650;48.882;2.092;2022-11-27T04:11:34;11.53;;;5.13;;
51558;SDS011;61650;48.882;2.092;2022-11-27T04:14:00;5.75;;;4.68;;
51558;SDS011;61650;48.882;2.092;2022-11-27T04:16:26;7.87;;;4.90;;
51558;SDS011;61650;48.882;2.092;2022-11-27T04:18:51;9.30;;;4.93;;
51558;SDS011;61650;48.882;2.092;2022-11-27T04:21:17;7.50;;;4.57;;
51558;SDS011;61650;48.882;2.092;2022-11-27T04:23:43;5.07;;;4.20;;
51558;SDS011;61650;48.882;2.092;2022-11-27T04:26:09;6.23;;;5.03;;
51558;SDS011;61650;48.882;2.092;2022-11-27T04:28:35;8.82;;;4.90;;
51558;SDS011;61650;48.882;2.092;2022-11-27T04:31:00;6.17;;;4.90;;
51558;SDS011;61650;48.882;2.092;2022-11-27T04:33:26;7.90;;;5.47;;
51558;SDS011;61650;48.882;2.092;2022-11-27T04:35:52;7.50;;;5.60;;
51558;SDS011;61650;48.882;2.092;2022-11-27T04:38:18;9.40;;;5.40;;
51558;SDS011;61650;48.882;2.092;2022-11-27T04:40:44;6.30;;;4.93;;
51558;SDS011;61650;48.882;2.092;2022-11-27T04:43:10;7.30;;;5.07;;
51558;SDS011;61650;48.882;2.092;2022-11-27T04:45:36;8.03;;;4.83;;
51558;SDS011;61650;48.882;2.092;2022-11-27T04:48:02;5.37;;;4.50;;
51558;SDS011;61650;48.882;2.092;2022-11-27T04:50:27;8.90;;;4.97;;
51558;SDS011;61650;48.882;2.092;2022-11-27T04:52:53;9.23;;;5.33;;
51558;SDS011;61650;48.882;2.092;2022-11-27T04:55:18;7.90;;;5.40;;
51558;SDS011;61650;48.882;2.092;2022-11-27T04:57:44;7.53;;;5.30;;
51558;SDS011;61650;48.882;2.092;2022-11-27T05:00:10;5.53;;;4.70;;
51558;SDS011;61650;48.882;2.092;2022-11-27T05:02:36;7.80;;;4.63;;
51558;SDS011;61650;48.882;2.092;2022-11-27T05:05:02;7.07;;;4.60;;
51558;SDS011;61650;48.882;2.092;2022-11-27T05:07:27;6.72;;;4.90;;
51558;SDS011;61650;48.882;2.092;2022-11-27T05:09:53;9.33;;;4.80;;
51558;SDS011;61650;48.882;2.092;2022-11-27T05:12:19;8.00;;;4.37;;
51558;SDS011;61650;48.882;2.092;2022-11-27T05:14:44;6.60;;;5.13;;
51558;SDS011;61650;48.882;2.092;2022-11-27T05:17:10;7.33;;;4.90;;
51558;SDS011;61650;48.882;2.092;2022-11-27T05:19:35;7.80;;;4.33;;
51558;SDS011;61650;48.882;2.092;2022-11-27T05:22:01;8.20;;;5.07;;
51558;SDS011;61650;48.882;2.092;2022-11-27T05:24:27;9.57;;;4.30;;
51558;SDS011;61650;48.882;2.092;2022-11-27T05:26:53;7.82;;;4.80;;
51558;SDS011;61650;48.882;2.092;2022-11-27T05:29:20;10.57;;;5.45;;
51558;SDS011;61650;48.882;2.092;2022-11-27T05:31:46;7.60;;;4.75;;
51558;SDS011;61650;48.882;2.092;2022-11-27T05:34:11;9.23;;;5.10;;
51558;SDS011;61650;48.882;2.092;2022-11-27T05:36:38;7.75;;;5.22;;
51558;SDS011;61650;48.882;2.092;2022-11-27T05:39:04;10.63;;;4.63;;
51558;SDS011;61650;48.882;2.092;2022-11-27T05:41:33;5.85;;;4.43;;
51558;SDS011;61650;48.882;2.092;2022-11-27T05:44:00;8.25;;;4.70;;
51558;SDS011;61650;48.882;2.092;2022-11-27T05:46:25;6.80;;;4.93;;
51558;SDS011;61650;48.882;2.092;2022-11-27T05:48:51;8.13;;;5.00;;
51558;SDS011;61650;48.882;2.092;2022-11-27T05:51:17;10.03;;;5.43;;
51558;SDS011;61650;48.882;2.092;2022-11-27T05:53:43;4.85;;;4.35;;
51558;SDS011;61650;48.882;2.092;2022-11-27T05:56:10;7.65;;;4.50;;
51558;SDS011;61650;48.882;2.092;2022-11-27T05:58:40;6.30;;;5.00;;
51558;SDS011;61650;48.882;2.092;2022-11-27T06:01:07;7.30;;;4.80;;
51558;SDS011;61650;48.882;2.092;2022-11-27T06:03:34;8.15;;;4.90;;
51558;SDS011;61650;48.882;2.092;2022-11-27T06:06:09;8.98;;;4.30;;
51558;SDS011;61650;48.882;2.092;2022-11-27T06:08:37;6.57;;;4.40;;
51558;SDS011;61650;48.882;2.092;2022-11-27T06:11:05;7.85;;;4.90;;
51558;SDS011;61650;48.882;2.092;2022-11-27T06:13:35;7.43;;;4.75;;
51558;SDS011;61650;48.882;2.092;2022-11-27T06:16:07;6.97;;;5.00;;
51558;SDS011;61650;48.882;2.092;2022-11-27T06:18:37;8.88;;;4.88;;
51558;SDS011;61650;48.882;2.092;2022-11-27T06:21:07;7.70;;;5.03;;
51558;SDS011;61650;48.882;2.092;2022-11-27T06:23:34;7.10;;;4.60;;
51558;SDS011;61650;48.882;2.092;2022-11-27T06:28:56;7.40;;;4.70;;
51558;SDS011;61650;48.882;2.092;2022-11-27T06:31:24;8.85;;;4.63;;
51558;SDS011;61650;48.882;2.092;2022-11-27T06:33:52;10.25;;;5.15;;
51558;SDS011;61650;48.882;2.092;2022-11-27T06:36:19;8.48;;;5.10;;
51558;SDS011;61650;48.882;2.092;2022-11-27T06:38:45;8.85;;;4.75;;
51558;SDS011;61650;48.882;2.092;2022-11-27T06:41:12;8.73;;;4.67;;
51558;SDS011;61650;48.882;2.092;2022-11-27T06:43:40;8.20;;;4.80;;
51558;SDS011;61650;48.882;2.092;2022-11-27T06:46:06;9.67;;;4.80;;
51558;SDS011;61650;48.882;2.092;2022-11-27T06:48:34;7.88;;;5.43;;
51558;SDS011;61650;48.882;2.092;2022-11-27T06:51:00;11.00;;;5.10;;
51558;SDS011;61650;48.882;2.092;2022-11-27T06:53:26;7.82;;;5.35;;
51558;SDS011;61650;48.882;2.092;2022-11-27T06:55:53;10.48;;;4.57;;
51558;SDS011;61650;48.882;2.092;2022-11-27T06:58:19;7.50;;;5.77;;
51558;SDS011;61650;48.882;2.092;2022-11-27T07:00:44;10.70;;;5.17;;
51558;SDS011;61650;48.882;2.092;2022-11-27T07:03:10;6.67;;;4.97;;
51558;SDS011;61650;48.882;2.092;2022-11-27T07:05:36;7.67;;;5.33;;
51558;SDS011;61650;48.882;2.092;2022-11-27T07:08:01;8.20;;;5.17;;
51558;SDS011;61650;48.882;2.092;2022-11-27T07:10:27;5.65;;;4.57;;
51558;SDS011;61650;48.882;2.092;2022-11-27T07:12:53;7.30;;;5.67;;
51558;SDS011;61650;48.882;2.092;2022-11-27T07:15:19;7.43;;;4.83;;
51558;SDS011;61650;48.882;2.092;2022-11-27T07:17:44;10.87;;;5.30;;
51558;SDS011;61650;48.882;2.092;2022-11-27T07:20:10;9.73;;;4.97;;
51558;SDS011;61650;48.882;2.092;2022-11-27T07:22:36;8.60;;;5.20;;
51558;SDS011;61650;48.882;2.092;2022-11-27T07:25:01;8.30;;;5.37;;
51558;SDS011;61650;48.882;2.092;2022-11-27T07:27:27;12.00;;;6.00;;
51558;SDS011;61650;48.882;2.092;2022-11-27T07:29:53;11.63;;;7.43;;
51558;SDS011;61650;48.882;2.092;2022-11-27T07:32:18;11.83;;;5.70;;
51558;SDS011;61650;48.882;2.092;2022-11-27T07:34:44;9.77;;;5.70;;
51558;SDS011;61650;48.882;2.092;2022-11-27T07:37:09;13.20;;;6.17;;
51558;SDS011;61650;48.882;2.092;2022-11-27T07:39:35;9.40;;;5.90;;
51558;SDS011;61650;48.882;2.092;2022-11-27T07:42:00;8.70;;;5.50;;
51558;SDS011;61650;48.882;2.092;2022-11-27T07:44:26;11.60;;;6.10;;
51558;SDS011;61650;48.882;2.092;2022-11-27T07:46:51;7.33;;;5.80;;
51558;SDS011;61650;48.882;2.092;2022-11-27T07:49:17;8.17;;;5.97;;
51558;SDS011;61650;48.882;2.092;2022-11-27T07:51:43;8.70;;;5.03;;
51558;SDS011;61650;48.882;2.092;2022-11-27T07:54:08;10.63;;;5.50;;
51558;SDS011;61650;48.882;2.092;2022-11-27T07:56:34;7.87;;;5.70;;
51558;SDS011;61650;48.882;2.092;2022-11-27T07:58:59;7.47;;;4.80;;
51558;SDS011;61650;48.882;2.092;2022-11-27T08:01:25;9.03;;;5.87;;
51558;SDS011;61650;48.882;2.092;2022-11-27T08:03:51;8.10;;;5.30;;
51558;SDS011;61650;48.882;2.092;2022-11-27T08:06:20;10.40;;;5.90;;
51558;SDS011;61650;48.882;2.092;2022-11-27T08:08:47;8.48;;;5.95;;
51558;SDS011;61650;48.882;2.092;2022-11-27T08:11:32;8.85;;;5.70;;
51558;SDS011;61650;48.882;2.092;2022-11-27T08:14:00;8.65;;;5.70;;
51558;SDS011;61650;48.882;2.092;2022-11-27T08:16:27;8.45;;;6.03;;
51558;SDS011;61650;48.882;2.092;2022-11-27T08:18:53;8.60;;;5.68;;
51558;SDS011;61650;48.882;2.092;2022-11-27T08:21:19;8.00;;;5.53;;
51558;SDS011;61650;48.882;2.092;2022-11-27T08:23:44;8.17;;;5.33;;
51558;SDS011;61650;48.882;2.092;2022-11-27T08:26:10;8.50;;;6.10;;
51558;SDS011;61650;48.882;2.092;2022-11-27T08:28:37;9.02;;;5.78;;
51558;SDS011;61650;48.882;2.092;2022-11-27T08:31:03;7.88;;;5.25;;
51558;SDS011;61650;48.882;2.092;2022-11-27T08:33:31;7.70;;;4.78;;
51558;SDS011;61650;48.882;2.092;2022-11-27T08:35:57;9.95;;;6.47;;
51558;SDS011;61650;48.882;2.092;2022-11-27T08:38:22;7.17;;;6.03;;
51558;SDS011;61650;48.882;2.092;2022-11-27T08:43:22;12.23;;;7.05;;
51558;SDS011;61650;48.882;2.092;2022-11-27T08:45:48;13.10;;;9.63;;
51558;SDS011;61650;48.882;2.092;2022-11-27T08:48:14;11.63;;;7.20;;
51558;SDS011;61650;48.882;2.092;2022-11-27T08:50:40;10.63;;;5.83;;
51558;SDS011;61650;48.882;2.092;2022-11-27T08:53:06;10.63;;;6.03;;
51558;SDS011;61650;48.882;2.092;2022-11-27T08:55:31;8.50;;;5.37;;
51558;SDS011;61650;48.882;2.092;2022-11-27T08:57:57;9.90;;;5.97;;
51558;SDS011;61650;48.882;2.092;2022-11-27T09:00:22;8.00;;;5.53;;
51558;SDS011;61650;48.882;2.092;2022-11-27T09:02:48;10.70;;;5.97;;
51558;SDS011;61650;48.882;2.092;2022-11-27T09:05:14;6.77;;;4.90;;
51558;SDS011;61650;48.882;2.092;2022-11-27T09:07:39;10.43;;;5.80;;
51558;SDS011;61650;48.882;2.092;2022-11-27T09:10:05;7.47;;;5.43;;
51558;SDS011;61650;48.882;2.092;2022-11-27T09:12:32;10.23;;;5.40;;
51558;SDS011;61650;48.882;2.092;2022-11-27T09:14:58;6.97;;;5.30;;
51558;SDS011;61650;48.882;2.092;2022-11-27T09:17:23;9.90;;;5.13;;
51558;SDS011;61650;48.882;2.092;2022-11-27T09:19:49;7.90;;;6.00;;
51558;SDS011;61650;48.882;2.092;2022-11-27T09:22:15;6.00;;;5.00;;
51558;SDS011;61650;48.882;2.092;2022-11-27T09:24:40;7.77;;;5.77;;
51558;SDS011;61650;48.882;2.092;2022-11-27T09:27:06;11.30;;;5.33;;
51558;SDS011;61650;48.882;2.092;2022-11-27T09:29:35;8.00;;;5.27;;
51558;SDS011;61650;48.882;2.092;2022-11-27T09:32:00;7.07;;;4.88;;
51558;SDS011;61650;48.882;2.092;2022-11-27T09:34:26;8.47;;;5.40;;
51558;SDS011;61650;48.882;2.092;2022-11-27T09:36:51;6.87;;;5.33;;
51558;SDS011;61650;48.882;2.092;2022-11-27T09:39:17;7.37;;;4.83;;
51558;SDS011;61650;48.882;2.092;2022-11-27T09:41:56;7.30;;;5.72;;
51558;SDS011;61650;48.882;2.092;2022-11-27T09:44:30;7.93;;;5.20;;
51558;SDS011;61650;48.882;2.092;2022-11-27T09:47:14;11.35;;;5.25;;
51558;SDS011;61650;48.882;2.092;2022-11-27T09:49:59;7.80;;;5.00;;
51558;SDS011;61650;48.882;2.092;2022-11-27T09:52:38;7.63;;;5.00;;
51558;SDS011;61650;48.882;2.092;2022-11-27T09:55:12;6.93;;;4.80;;
51558;SDS011;61650;48.882;2.092;2022-11-27T09:57:49;7.90;;;5.38;;
51558;SDS011;61650;48.882;2.092;2022-11-27T10:00:30;6.82;;;4.90;;
51558;SDS011;61650;48.882;2.092;2022-11-27T10:02:55;8.97;;;5.27;;
51558;SDS011;61650;48.882;2.092;2022-11-27T10:05:24;6.97;;;4.80;;
51558;SDS011;61650;48.882;2.092;2022-11-27T10:08:09;10.63;;;5.72;;
51558;SDS011;61650;48.882;2.092;2022-11-27T10:10:56;7.93;;;5.82;;
51558;SDS011;61650;48.882;2.092;2022-11-27T10:17:10;6.65;;;4.82;;
51558;SDS011;61650;48.882;2.092;2022-11-27T10:23:01;6.55;;;5.78;;
51558;SDS011;61650;48.882;2.092;2022-11-27T10:30:39;9.13;;;6.20;;
51558;SDS011;61650;48.882;2.092;2022-11-27T10:33:19;9.93;;;6.07;;
51558;SDS011;61650;48.882;2.092;2022-11-27T10:35:49;9.90;;;6.50;;
51558;SDS011;61650;48.882;2.092;2022-11-27T10:38:19;7.65;;;6.35;;
51558;SDS011;61650;48.882;2.092;2022-11-27T10:43:55;8.30;;;5.03;;
51558;SDS011;61650;48.882;2.092;2022-11-27T10:46:26;10.77;;;6.38;;
51558;SDS011;61650;48.882;2.092;2022-11-27T10:48:55;9.30;;;5.68;;
51558;SDS011;61650;48.882;2.092;2022-11-27T10:51:29;9.75;;;5.65;;
51558;SDS011;61650;48.882;2.092;2022-11-27T10:53:57;8.57;;;6.15;;
51558;SDS011;61650;48.882;2.092;2022-11-27T10:59:00;8.90;;;5.40;;
51558;SDS011;61650;48.882;2.092;2022-11-27T11:01:50;7.03;;;4.80;;
51558;SDS011;61650;48.882;2.092;2022-11-27T11:04:20;6.87;;;5.80;;
51558;SDS011;61650;48.882;2.092;2022-11-27T11:06:52;10.05;;;6.00;;
51558;SDS011;61650;48.882;2.092;2022-11-27T11:11:46;8.98;;;6.15;;
51558;SDS011;61650;48.882;2.092;2022-11-27T11:14:16;9.57;;;5.70;;
51558;SDS011;61650;48.882;2.092;2022-11-27T11:16:44;10.15;;;6.38;;
51558;SDS011;61650;48.882;2.092;2022-11-27T11:19:32;8.43;;;6.55;;
51558;SDS011;61650;48.882;2.092;2022-11-27T11:21:59;7.25;;;5.95;;
51558;SDS011;61650;48.882;2.092;2022-11-27T11:24:29;9.52;;;6.38;;
51558;SDS011;61650;48.882;2.092;2022-11-27T11:27:03;7.55;;;6.05;;
51558;SDS011;61650;48.882;2.092;2022-11-27T11:29:57;8.40;;;5.80;;
51558;SDS011;61650;48.882;2.092;2022-11-27T11:34:57;9.23;;;7.00;;
51558;SDS011;61650;48.882;2.092;2022-11-27T11:39:58;7.85;;;6.47;;
51558;SDS011;61650;48.882;2.092;2022-11-27T11:42:29;31.52;;;19.70;;
51558;SDS011;61650;48.882;2.092;2022-11-27T11:47:48;18.25;;;9.55;;
51558;SDS011;61650;48.882;2.092;2022-11-27T11:53:36;8.43;;;6.38;;
51558;SDS011;61650;48.882;2.092;2022-11-27T11:56:19;9.63;;;6.13;;
51558;SDS011;61650;48.882;2.092;2022-11-27T12:06:35;12.73;;;7.20;;
51558;SDS011;61650;48.882;2.092;2022-11-27T12:14:42;10.70;;;7.20;;
51558;SDS011;61650;48.882;2.092;2022-11-27T12:19:54;8.40;;;7.35;;
51558;SDS011;61650;48.882;2.092;2022-11-27T12:25:32;10.73;;;7.63;;
51558;SDS011;61650;48.882;2.092;2022-11-27T12:39:10;11.55;;;8.05;;
51558;SDS011;61650;48.882;2.092;2022-11-27T12:44:41;14.00;;;10.23;;
51558;SDS011;61650;48.882;2.092;2022-11-27T12:49:56;7.97;;;7.10;;
51558;SDS011;61650;48.882;2.092;2022-11-27T12:52:28;9.05;;;7.50;;
51558;SDS011;61650;48.882;2.092;2022-11-27T13:00:19;8.32;;;6.32;;
51558;SDS011;61650;48.882;2.092;2022-11-27T13:03:05;10.45;;;7.35;;
51558;SDS011;61650;48.882;2.092;2022-11-27T13:05:39;10.00;;;6.55;;
51558;SDS011;61650;48.882;2.092;2022-11-27T13:08:15;10.95;;;7.97;;
51558;SDS011;61650;48.882;2.092;2022-11-27T13:10:52;9.18;;;7.65;;
51558;SDS011;61650;48.882;2.092;2022-11-27T13:13:27;11.23;;;7.07;;
51558;SDS011;61650;48.882;2.092;2022-11-27T13:18:57;9.57;;;8.57;;
51558;SDS011;61650;48.882;2.092;2022-11-27T13:21:44;13.97;;;8.33;;
51558;SDS011;61650;48.882;2.092;2022-11-27T13:24:11;12.07;;;9.40;;
51558;SDS011;61650;48.882;2.092;2022-11-27T13:26:43;10.03;;;8.13;;
51558;SDS011;61650;48.882;2.092;2022-11-27T13:32:02;11.98;;;7.18;;
51558;SDS011;61650;48.882;2.092;2022-11-27T13:34:28;9.50;;;7.80;;
51558;SDS011;61650;48.882;2.092;2022-11-27T13:37:00;8.00;;;6.73;;
51558;SDS011;61650;48.882;2.092;2022-11-27T13:39:33;8.80;;;7.60;;
51558;SDS011;61650;48.882;2.092;2022-11-27T13:45:07;8.13;;;7.00;;
51558;SDS011;61650;48.882;2.092;2022-11-27T13:47:42;8.50;;;6.87;;
51558;SDS011;61650;48.882;2.092;2022-11-27T13:50:09;8.30;;;7.30;;
51558;SDS011;61650;48.882;2.092;2022-11-27T13:52:48;8.00;;;7.00;;
51558;SDS011;61650;48.882;2.092;2022-11-27T13:55:22;12.50;;;8.20;;
51558;SDS011;61650;48.882;2.092;2022-11-27T13:57:53;11.60;;;10.27;;
51558;SDS011;61650;48.882;2.092;2022-11-27T14:00:29;11.53;;;9.60;;
51558;SDS011;61650;48.882;2.092;2022-11-27T14:02:59;16.73;;;13.77;;
51558;SDS011;61650;48.882;2.092;2022-11-27T14:05:35;11.17;;;9.60;;
51558;SDS011;61650;48.882;2.092;2022-11-27T14:11:04;13.50;;;11.20;;
51558;SDS011;61650;48.882;2.092;2022-11-27T14:13:41;10.13;;;9.10;;
51558;SDS011;61650;48.882;2.092;2022-11-27T14:16:29;12.40;;;9.10;;
51558;SDS011;61650;48.882;2.092;2022-11-27T14:18:58;11.27;;;8.77;;
51558;SDS011;61650;48.882;2.092;2022-11-27T14:24:03;12.67;;;9.93;;
51558;SDS011;61650;48.882;2.092;2022-11-27T14:26:50;8.73;;;7.50;;
51558;SDS011;61650;48.882;2.092;2022-11-27T14:29:18;9.60;;;6.90;;
51558;SDS011;61650;48.882;2.092;2022-11-27T14:31:45;11.07;;;9.00;;
51558;SDS011;61650;48.882;2.092;2022-11-27T14:34:25;13.07;;;8.70;;
51558;SDS011;61650;48.882;2.092;2022-11-27T14:36:52;12.07;;;8.60;;
51558;SDS011;61650;48.882;2.092;2022-11-27T14:39:23;9.20;;;8.20;;
51558;SDS011;61650;48.882;2.092;2022-11-27T14:42:06;11.27;;;7.73;;
51558;SDS011;61650;48.882;2.092;2022-11-27T14:44:43;8.50;;;7.30;;
51558;SDS011;61650;48.882;2.092;2022-11-27T14:47:14;10.47;;;8.30;;
51558;SDS011;61650;48.882;2.092;2022-11-27T14:49:43;8.53;;;7.23;;
51558;SDS011;61650;48.882;2.092;2022-11-27T14:52:10;12.40;;;10.10;;
51558;SDS011;61650;48.882;2.092;2022-11-27T14:54:39;12.53;;;9.20;;
51558;SDS011;61650;48.882;2.092;2022-11-27T14:57:05;13.57;;;8.07;;
51558;SDS011;61650;48.882;2.092;2022-11-27T14:59:37;9.97;;;7.37;;
51558;SDS011;61650;48.882;2.092;2022-11-27T15:04:39;13.40;;;9.30;;
51558;SDS011;61650;48.882;2.092;2022-11-27T15:07:17;14.03;;;9.00;;
51558;SDS011;61650;48.882;2.092;2022-11-27T15:09:56;11.60;;;7.77;;
51558;SDS011;61650;48.882;2.092;2022-11-27T15:12:27;10.00;;;8.50;;
51558;SDS011;61650;48.882;2.092;2022-11-27T15:14:59;13.23;;;9.40;;
51558;SDS011;61650;48.882;2.092;2022-11-27T15:17:30;9.03;;;8.13;;
51558;SDS011;61650;48.882;2.092;2022-11-27T15:19:59;11.90;;;9.90;;
51558;SDS011;61650;48.882;2.092;2022-11-27T15:22:28;10.03;;;8.50;;
51558;SDS011;61650;48.882;2.092;2022-11-27T15:24:58;12.27;;;10.07;;
51558;SDS011;61650;48.882;2.092;2022-11-27T15:27:24;11.80;;;9.07;;
51558;SDS011;61650;48.882;2.092;2022-11-27T15:32:20;14.83;;;10.77;;
51558;SDS011;61650;48.882;2.092;2022-11-27T15:34:48;12.90;;;11.67;;
51558;SDS011;61650;48.882;2.092;2022-11-27T15:37:21;15.23;;;12.00;;
51558;SDS011;61650;48.882;2.092;2022-11-27T15:39:52;13.80;;;12.17;;
51558;SDS011;61650;48.882;2.092;2022-11-27T15:42:18;18.80;;;14.00;;
51558;SDS011;61650;48.882;2.092;2022-11-27T15:44:45;45.93;;;29.50;;
51558;SDS011;61650;48.882;2.092;2022-11-27T15:47:22;26.85;;;19.38;;
51558;SDS011;61650;48.882;2.092;2022-11-27T15:49:51;17.92;;;15.27;;
51558;SDS011;61650;48.882;2.092;2022-11-27T15:52:17;64.80;;;40.53;;
51558;SDS011;61650;48.882;2.092;2022-11-27T15:54:43;52.20;;;34.53;;
51558;SDS011;61650;48.882;2.092;2022-11-27T15:57:09;67.17;;;44.97;;
51558;SDS011;61650;48.882;2.092;2022-11-27T15:59:35;136.03;;;72.60;;
51558;SDS011;61650;48.882;2.092;2022-11-27T16:02:00;80.47;;;49.10;;
51558;SDS011;61650;48.882;2.092;2022-11-27T16:04:26;79.97;;;49.10;;
51558;SDS011;61650;48.882;2.092;2022-11-27T16:06:51;66.73;;;40.00;;
51558;SDS011;61650;48.882;2.092;2022-11-27T16:09:17;54.10;;;39.10;;
51558;SDS011;61650;48.882;2.092;2022-11-27T16:11:43;44.27;;;30.93;;
51558;SDS011;61650;48.882;2.092;2022-11-27T16:14:09;31.40;;;26.20;;
51558;SDS011;61650;48.882;2.092;2022-11-27T16:16:35;25.13;;;20.88;;
51558;SDS011;61650;48.882;2.092;2022-11-27T16:19:01;21.40;;;17.60;;
51558;SDS011;61650;48.882;2.092;2022-11-27T16:21:28;20.63;;;18.17;;
51558;SDS011;61650;48.882;2.092;2022-11-27T16:23:55;20.80;;;17.50;;
51558;SDS011;61650;48.882;2.092;2022-11-27T16:26:25;17.65;;;15.20;;
51558;SDS011;61650;48.882;2.092;2022-11-27T16:28:52;19.57;;;16.60;;
51558;SDS011;61650;48.882;2.092;2022-11-27T16:31:18;19.93;;;15.90;;
51558;SDS011;61650;48.882;2.092;2022-11-27T16:33:44;20.00;;;17.47;;
51558;SDS011;61650;48.882;2.092;2022-11-27T16:36:10;16.87;;;15.00;;
51558;SDS011;61650;48.882;2.092;2022-11-27T16:38:38;16.67;;;13.83;;
51558;SDS011;61650;48.882;2.092;2022-11-27T16:41:05;17.20;;;13.17;;
51558;SDS011;61650;48.882;2.092;2022-11-27T16:43:35;21.03;;;18.87;;
51558;SDS011;61650;48.882;2.092;2022-11-27T16:46:12;19.90;;;17.47;;
51558;SDS011;61650;48.882;2.092;2022-11-27T16:48:40;13.83;;;12.47;;
51558;SDS011;61650;48.882;2.092;2022-11-27T16:53:37;17.17;;;15.23;;
51558;SDS011;61650;48.882;2.092;2022-11-27T16:56:07;17.05;;;10.48;;
51558;SDS011;61650;48.882;2.092;2022-11-27T16:58:35;10.63;;;9.53;;